sensor_id;sensor_type;location;lat;lon;timestamp;temperature;humidity
21518;DHT22;61765;45.794;24.150;2023-05-07T00:07:08;21.30;58.40
21518;DHT22;61765;45.794;24.150;2023-05-07T00:15:16;20.70;57.50
21518;DHT22;61765;45.794;24.150;2023-05-07T00:23:22;20.60;59.20
21518;DHT22;61765;45.794;24.150;2023-05-07T00:31:30;20.80;58.80
21518;DHT22;61765;45.794;24.150;2023-05-07T00:39:35;21.20;58.20
21518;DHT22;61765;45.794;24.150;2023-05-07T00:47:43;21.60;58.00
21518;DHT22;61765;45.794;24.150;2023-05-07T00:55:49;21.60;58.30
21518;DHT22;61765;45.794;24.150;2023-05-07T01:03:58;20.90;60.40
21518;DHT22;61765;45.794;24.150;2023-05-07T01:12:06;21.20;60.60
21518;DHT22;61765;45.794;24.150;2023-05-07T01:20:15;20.80;60.30
21518;DHT22;61765;45.794;24.150;2023-05-07T01:28:25;20.20;59.90
21518;DHT22;61765;45.794;24.150;2023-05-07T01:36:34;20.40;59.30
21518;DHT22;61765;45.794;24.150;2023-05-07T01:44:43;20.60;60.40
21518;DHT22;61765;45.794;24.150;2023-05-07T01:52:50;21.10;58.70
21518;DHT22;61765;45.794;24.150;2023-05-07T02:01:10;21.20;58.10
21518;DHT22;61765;45.794;24.150;2023-05-07T02:09:18;21.30;57.10
21518;DHT22;61765;45.794;24.150;2023-05-07T02:17:27;21.20;56.70
21518;DHT22;61765;45.794;24.150;2023-05-07T02:25:34;20.80;57.20
21518;DHT22;61765;45.794;24.150;2023-05-07T02:33:43;20.90;56.90
21518;DHT22;61765;45.794;24.150;2023-05-07T02:41:49;20.90;56.70
21518;DHT22;61765;45.794;24.150;2023-05-07T02:49:57;20.50;57.70
21518;DHT22;61765;45.794;24.150;2023-05-07T02:58:04;20.50;57.70
21518;DHT22;61765;45.794;24.150;2023-05-07T03:06:14;20.10;58.20
21518;DHT22;61765;45.794;24.150;2023-05-07T03:14:20;20.20;58.00
21518;DHT22;61765;45.794;24.150;2023-05-07T03:22:28;20.70;57.60
21518;DHT22;61765;45.794;24.150;2023-05-07T03:30:34;20.70;57.30
21518;DHT22;61765;45.794;24.150;2023-05-07T03:38:42;20.80;57.70
21518;DHT22;61765;45.794;24.150;2023-05-07T04:30:12;20.30;61.90
21518;DHT22;61765;45.794;24.150;2023-05-07T04:38:19;20.30;60.70
21518;DHT22;61765;45.794;24.150;2023-05-07T04:46:30;20.40;59.90
21518;DHT22;61765;45.794;24.150;2023-05-07T04:54:37;20.70;59.60
21518;DHT22;61765;45.794;24.150;2023-05-07T05:02:45;20.70;59.20
21518;DHT22;61765;45.794;24.150;2023-05-07T05:10:54;21.00;58.70
21518;DHT22;61765;45.794;24.150;2023-05-07T05:19:03;21.00;58.30
21518;DHT22;61765;45.794;24.150;2023-05-07T05:27:12;21.30;58.20
21518;DHT22;61765;45.794;24.150;2023-05-07T05:35:20;21.90;57.50
21518;DHT22;61765;45.794;24.150;2023-05-07T05:43:26;22.10;56.80
21518;DHT22;61765;45.794;24.150;2023-05-07T05:51:34;21.90;57.00
21518;DHT22;61765;45.794;24.150;2023-05-07T05:59:40;21.90;57.40
21518;DHT22;61765;45.794;24.150;2023-05-07T06:07:50;22.10;56.70
21518;DHT22;61765;45.794;24.150;2023-05-07T06:15:56;22.10;56.50
21518;DHT22;61765;45.794;24.150;2023-05-07T06:24:05;22.40;55.90
21518;DHT22;61765;45.794;24.150;2023-05-07T06:32:13;22.20;56.60
21518;DHT22;61765;45.794;24.150;2023-05-07T06:40:23;22.60;56.40
21518;DHT22;61765;45.794;24.150;2023-05-07T06:48:29;23.30;55.60
21518;DHT22;61765;45.794;24.150;2023-05-07T06:56:42;23.60;54.80
21518;DHT22;61765;45.794;24.150;2023-05-07T07:04:48;23.30;54.80
21518;DHT22;61765;45.794;24.150;2023-05-07T07:12:57;23.50;55.30
21518;DHT22;61765;45.794;24.150;2023-05-07T07:21:03;23.80;54.10
21518;DHT22;61765;45.794;24.150;2023-05-07T07:29:11;23.60;54.30
21518;DHT22;61765;45.794;24.150;2023-05-07T07:37:18;24.50;53.30
21518;DHT22;61765;45.794;24.150;2023-05-07T07:45:26;24.70;53.20
21518;DHT22;61765;45.794;24.150;2023-05-07T07:53:31;25.00;52.70
21518;DHT22;61765;45.794;24.150;2023-05-07T08:01:40;24.70;53.40
21518;DHT22;61765;45.794;24.150;2023-05-07T08:09:45;25.70;52.20
21518;DHT22;61765;45.794;24.150;2023-05-07T08:17:58;25.60;52.10
21518;DHT22;61765;45.794;24.150;2023-05-07T08:26:04;26.30;50.40
21518;DHT22;61765;45.794;24.150;2023-05-07T08:34:14;26.60;51.10
21518;DHT22;61765;45.794;24.150;2023-05-07T08:42:23;27.10;50.30
21518;DHT22;61765;45.794;24.150;2023-05-07T08:50:35;27.80;49.40
21518;DHT22;61765;45.794;24.150;2023-05-07T08:58:41;28.40;48.60
21518;DHT22;61765;45.794;24.150;2023-05-07T09:06:49;28.50;47.90
21518;DHT22;61765;45.794;24.150;2023-05-07T09:14:57;28.50;48.20
21518;DHT22;61765;45.794;24.150;2023-05-07T09:23:08;28.60;47.80
21518;DHT22;61765;45.794;24.150;2023-05-07T09:31:14;28.80;48.00
21518;DHT22;61765;45.794;24.150;2023-05-07T09:39:26;28.30;48.00
21518;DHT22;61765;45.794;24.150;2023-05-07T09:47:32;29.00;47.80
21518;DHT22;61765;45.794;24.150;2023-05-07T09:55:45;29.70;47.10
21518;DHT22;61765;45.794;24.150;2023-05-07T10:03:51;30.80;45.70
21518;DHT22;61765;45.794;24.150;2023-05-07T10:12:01;31.40;46.00
21518;DHT22;61765;45.794;24.150;2023-05-07T10:20:10;32.00;44.30
21518;DHT22;61765;45.794;24.150;2023-05-07T10:28:22;32.00;44.60
21518;DHT22;61765;45.794;24.150;2023-05-07T10:36:29;32.20;43.90
21518;DHT22;61765;45.794;24.150;2023-05-07T10:44:42;31.30;45.10
21518;DHT22;61765;45.794;24.150;2023-05-07T10:53:20;31.60;46.00
21518;DHT22;61765;45.794;24.150;2023-05-07T11:01:55;31.00;44.40
21518;DHT22;61765;45.794;24.150;2023-05-07T11:10:08;28.20;47.00
21518;DHT22;61765;45.794;24.150;2023-05-07T11:18:46;29.00;47.80
21518;DHT22;61765;45.794;24.150;2023-05-07T11:26:58;30.70;46.20
21518;DHT22;61765;45.794;24.150;2023-05-07T11:35:08;30.50;45.70
21518;DHT22;61765;45.794;24.150;2023-05-07T11:43:15;30.30;46.60
21518;DHT22;61765;45.794;24.150;2023-05-07T11:51:24;29.90;47.10
21518;DHT22;61765;45.794;24.150;2023-05-07T11:59:38;29.40;47.90
21518;DHT22;61765;45.794;24.150;2023-05-07T12:07:48;29.80;48.00
21518;DHT22;61765;45.794;24.150;2023-05-07T12:15:55;30.20;48.00
21518;DHT22;61765;45.794;24.150;2023-05-07T12:24:04;30.10;48.40
21518;DHT22;61765;45.794;24.150;2023-05-07T12:32:13;29.40;49.20
21518;DHT22;61765;45.794;24.150;2023-05-07T12:40:22;28.90;49.70
21518;DHT22;61765;45.794;24.150;2023-05-07T12:48:28;28.60;51.00
21518;DHT22;61765;45.794;24.150;2023-05-07T12:56:39;28.30;51.70
21518;DHT22;61765;45.794;24.150;2023-05-07T13:04:44;27.30;52.80
21518;DHT22;61765;45.794;24.150;2023-05-07T13:12:52;27.30;53.70
21518;DHT22;61765;45.794;24.150;2023-05-07T13:20:58;27.50;54.10
21518;DHT22;61765;45.794;24.150;2023-05-07T13:29:07;29.00;52.00
21518;DHT22;61765;45.794;24.150;2023-05-07T13:37:12;28.70;52.00
21518;DHT22;61765;45.794;24.150;2023-05-07T13:45:20;28.30;53.00
21518;DHT22;61765;45.794;24.150;2023-05-07T13:53:28;27.70;53.70
21518;DHT22;61765;45.794;24.150;2023-05-07T14:01:36;27.60;55.00
21518;DHT22;61765;45.794;24.150;2023-05-07T14:09:43;27.00;55.70
21518;DHT22;61765;45.794;24.150;2023-05-07T14:17:51;26.30;57.10
21518;DHT22;61765;45.794;24.150;2023-05-07T14:25:57;25.90;58.20
21518;DHT22;61765;45.794;24.150;2023-05-07T14:34:05;26.00;58.50
21518;DHT22;61765;45.794;24.150;2023-05-07T14:42:10;26.00;58.60
21518;DHT22;61765;45.794;24.150;2023-05-07T14:50:18;25.80;60.60
21518;DHT22;61765;45.794;24.150;2023-05-07T14:58:24;25.40;61.00
21518;DHT22;61765;45.794;24.150;2023-05-07T15:06:32;25.00;62.50
21518;DHT22;61765;45.794;24.150;2023-05-07T15:14:38;24.90;64.20
21518;DHT22;61765;45.794;24.150;2023-05-07T15:22:46;25.30;64.40
21518;DHT22;61765;45.794;24.150;2023-05-07T15:30:52;24.90;64.90
21518;DHT22;61765;45.794;24.150;2023-05-07T15:39:00;24.30;66.90
21518;DHT22;61765;45.794;24.150;2023-05-07T15:47:06;23.80;69.00
21518;DHT22;61765;45.794;24.150;2023-05-07T15:55:14;23.50;68.90
21518;DHT22;61765;45.794;24.150;2023-05-07T16:03:20;22.90;69.20
21518;DHT22;61765;45.794;24.150;2023-05-07T16:11:28;23.40;68.30
21518;DHT22;61765;45.794;24.150;2023-05-07T16:19:35;23.20;69.20
21518;DHT22;61765;45.794;24.150;2023-05-07T16:27:43;23.00;70.00
21518;DHT22;61765;45.794;24.150;2023-05-07T16:35:51;22.70;72.20
21518;DHT22;61765;45.794;24.150;2023-05-07T16:44:00;22.70;73.60
21518;DHT22;61765;45.794;24.150;2023-05-07T16:52:05;22.70;74.40
21518;DHT22;61765;45.794;24.150;2023-05-07T17:00:14;22.10;76.00
21518;DHT22;61765;45.794;24.150;2023-05-07T17:08:20;22.30;75.30
21518;DHT22;61765;45.794;24.150;2023-05-07T17:16:29;22.40;74.80
21518;DHT22;61765;45.794;24.150;2023-05-07T17:24:34;21.80;75.60
21518;DHT22;61765;45.794;24.150;2023-05-07T17:32:42;22.30;75.10
21518;DHT22;61765;45.794;24.150;2023-05-07T17:40:48;22.10;75.50
21518;DHT22;61765;45.794;24.150;2023-05-07T17:48:57;22.40;74.80
21518;DHT22;61765;45.794;24.150;2023-05-07T17:57:03;22.40;75.30
21518;DHT22;61765;45.794;24.150;2023-05-07T18:05:11;22.40;75.90
21518;DHT22;61765;45.794;24.150;2023-05-07T18:13:17;22.30;76.80
21518;DHT22;61765;45.794;24.150;2023-05-07T18:21:25;22.50;76.60
21518;DHT22;61765;45.794;24.150;2023-05-07T18:29:30;22.60;77.10
21518;DHT22;61765;45.794;24.150;2023-05-07T18:37:47;22.80;78.70
21518;DHT22;61765;45.794;24.150;2023-05-07T18:45:53;22.10;81.20
21518;DHT22;61765;45.794;24.150;2023-05-07T18:54:01;22.60;80.90
21518;DHT22;61765;45.794;24.150;2023-05-07T19:02:06;22.60;81.10
21518;DHT22;61765;45.794;24.150;2023-05-07T19:10:17;22.40;81.60
21518;DHT22;61765;45.794;24.150;2023-05-07T19:18:23;22.30;81.90
21518;DHT22;61765;45.794;24.150;2023-05-07T19:26:33;22.00;82.00
21518;DHT22;61765;45.794;24.150;2023-05-07T19:34:40;21.80;82.60
21518;DHT22;61765;45.794;24.150;2023-05-07T19:42:48;22.00;82.40
21518;DHT22;61765;45.794;24.150;2023-05-07T19:50:53;21.70;83.00
21518;DHT22;61765;45.794;24.150;2023-05-07T19:59:03;22.00;82.20
21518;DHT22;61765;45.794;24.150;2023-05-07T20:07:08;22.00;83.60
21518;DHT22;61765;45.794;24.150;2023-05-07T20:15:16;21.50;83.80
21518;DHT22;61765;45.794;24.150;2023-05-07T20:23:22;21.50;84.10
21518;DHT22;61765;45.794;24.150;2023-05-07T20:31:30;21.60;83.40
21518;DHT22;61765;45.794;24.150;2023-05-07T20:39:36;21.70;83.10
21518;DHT22;61765;45.794;24.150;2023-05-07T20:47:44;21.70;82.70
21518;DHT22;61765;45.794;24.150;2023-05-07T20:55:50;21.70;83.40
21518;DHT22;61765;45.794;24.150;2023-05-07T21:03:59;20.70;86.60
21518;DHT22;61765;45.794;24.150;2023-05-07T21:12:05;21.30;86.50
21518;DHT22;61765;45.794;24.150;2023-05-07T21:20:13;21.60;85.50
21518;DHT22;61765;45.794;24.150;2023-05-07T21:28:19;21.60;85.40
21518;DHT22;61765;45.794;24.150;2023-05-07T21:36:27;21.50;86.50
21518;DHT22;61765;45.794;24.150;2023-05-07T21:44:32;21.40;86.50
21518;DHT22;61765;45.794;24.150;2023-05-07T21:52:40;21.40;86.70
21518;DHT22;61765;45.794;24.150;2023-05-07T22:00:46;21.30;86.70
21518;DHT22;61765;45.794;24.150;2023-05-07T22:08:54;21.10;87.00
21518;DHT22;61765;45.794;24.150;2023-05-07T22:17:00;20.90;87.00
21518;DHT22;61765;45.794;24.150;2023-05-07T22:25:18;20.80;87.50
21518;DHT22;61765;45.794;24.150;2023-05-07T22:33:23;20.90;87.10
21518;DHT22;61765;45.794;24.150;2023-05-07T22:41:31;20.90;86.00
21518;DHT22;61765;45.794;24.150;2023-05-07T22:49:37;20.60;86.80
21518;DHT22;61765;45.794;24.150;2023-05-07T22:57:47;20.70;86.60
21518;DHT22;61765;45.794;24.150;2023-05-07T23:06:00;20.60;86.70
21518;DHT22;61765;45.794;24.150;2023-05-07T23:14:08;20.60;86.80
21518;DHT22;61765;45.794;24.150;2023-05-07T23:22:17;20.40;86.80
21518;DHT22;61765;45.794;24.150;2023-05-07T23:30:25;20.70;86.30
21518;DHT22;61765;45.794;24.150;2023-05-07T23:38:31;20.70;86.00
21518;DHT22;61765;45.794;24.150;2023-05-07T23:46:39;20.80;86.80
21518;DHT22;61765;45.794;24.150;2023-05-07T23:54:45;20.80;87.30
